createdAt,value
2018-07-16T00:00:21.754Z,5.23
2018-07-16T00:02:49.659Z,6.30
2018-07-16T00:05:17.426Z,5.17
2018-07-16T00:07:45.326Z,5.33
2018-07-16T00:10:13.336Z,5.00
2018-07-16T00:12:42.078Z,5.70
2018-07-16T00:15:10.153Z,5.37
2018-07-16T00:17:38.106Z,6.27
2018-07-16T00:20:06.596Z,5.40
2018-07-16T00:22:34.969Z,4.70
2018-07-16T00:25:03.535Z,6.20
2018-07-16T00:27:32.520Z,5.00
2018-07-16T00:30:00.182Z,4.70
2018-07-16T00:32:28.066Z,13.40
2018-07-16T00:34:56.174Z,5.43
2018-07-16T00:37:24.127Z,4.97
2018-07-16T00:39:52.114Z,5.33
2018-07-16T00:42:19.880Z,6.80
2018-07-16T00:44:47.750Z,5.17
2018-07-16T00:47:15.611Z,6.00
2018-07-16T00:49:43.302Z,5.37
2018-07-16T00:52:11.041Z,5.40
2018-07-16T00:54:38.743Z,5.20
2018-07-16T00:57:06.620Z,5.53
2018-07-16T00:59:34.292Z,4.83
2018-07-16T01:02:02.257Z,4.87
2018-07-16T01:04:30.064Z,5.10
2018-07-16T01:06:57.888Z,4.87
2018-07-16T01:09:25.677Z,5.00
2018-07-16T01:11:53.566Z,4.90
2018-07-16T01:14:21.688Z,6.00
2018-07-16T01:16:50.009Z,4.93
2018-07-16T01:19:18.912Z,5.70
2018-07-16T01:21:46.737Z,5.00
2018-07-16T01:24:14.715Z,4.90
2018-07-16T01:26:42.574Z,5.43
2018-07-16T01:29:10.899Z,5.57
2018-07-16T01:31:38.788Z,5.00
2018-07-16T01:34:06.581Z,7.53
2018-07-16T01:36:35.098Z,4.60
2018-07-16T01:39:03.324Z,5.40
2018-07-16T01:41:31.153Z,6.07
2018-07-16T01:43:59.018Z,5.63
2018-07-16T01:46:27.035Z,5.30
2018-07-16T01:48:54.951Z,5.63
2018-07-16T01:51:22.679Z,4.77
2018-07-16T01:53:50.684Z,5.83
2018-07-16T01:56:18.992Z,4.60
2018-07-16T01:58:46.733Z,5.53
2018-07-16T02:01:14.477Z,4.77
2018-07-16T02:03:42.251Z,5.40
2018-07-16T02:06:10.034Z,5.87
2018-07-16T02:08:37.980Z,5.47
2018-07-16T02:11:06.137Z,5.20
2018-07-16T02:13:34.164Z,5.70
2018-07-16T02:16:01.883Z,6.00
2018-07-16T02:18:30.100Z,5.10
2018-07-16T02:20:57.968Z,4.60
2018-07-16T02:23:25.765Z,4.87
2018-07-16T02:25:53.557Z,6.03
2018-07-16T02:28:21.620Z,5.60
2018-07-16T02:30:49.533Z,5.17
2018-07-16T02:33:17.775Z,5.40
2018-07-16T02:35:45.924Z,5.13
2018-07-16T02:38:13.827Z,4.53
2018-07-16T02:40:41.654Z,5.70
2018-07-16T02:43:10.344Z,5.37
2018-07-16T02:45:38.405Z,5.00
2018-07-16T02:48:06.353Z,4.80
2018-07-16T02:50:34.242Z,5.57
2018-07-16T02:53:02.149Z,5.13
2018-07-16T02:55:29.931Z,4.97
2018-07-16T02:57:57.794Z,5.73
2018-07-16T03:00:25.710Z,5.43
2018-07-16T03:02:53.458Z,5.00
2018-07-16T03:05:21.632Z,5.40
2018-07-16T03:07:50.305Z,4.80
2018-07-16T03:10:18.535Z,4.70
2018-07-16T03:12:46.563Z,5.70
2018-07-16T03:15:14.772Z,5.43
2018-07-16T03:17:42.477Z,5.40
2018-07-16T03:20:10.415Z,5.53
2018-07-16T03:22:38.290Z,5.50
2018-07-16T03:25:06.224Z,5.73
2018-07-16T03:27:33.836Z,5.20
2018-07-16T03:30:01.736Z,5.73
2018-07-16T03:32:29.536Z,4.97
2018-07-16T03:34:57.800Z,6.10
2018-07-16T03:37:25.574Z,5.57
2018-07-16T03:39:53.440Z,5.70
2018-07-16T03:42:21.167Z,5.27
2018-07-16T03:44:49.016Z,5.40
2018-07-16T03:47:16.835Z,5.60
2018-07-16T03:49:44.617Z,5.57
2018-07-16T03:52:12.680Z,6.27
2018-07-16T03:54:40.515Z,5.30
2018-07-16T03:57:08.925Z,4.80
2018-07-16T03:59:36.891Z,4.90
2018-07-16T04:02:04.796Z,5.70
2018-07-16T04:04:32.615Z,32.10
2018-07-16T04:07:00.509Z,5.67
2018-07-16T04:09:28.423Z,5.30
2018-07-16T04:11:56.249Z,8.50
2018-07-16T04:14:25.045Z,5.70
2018-07-16T04:16:53.083Z,4.97
2018-07-16T04:19:20.801Z,5.27
2018-07-16T04:21:48.537Z,6.73
2018-07-16T04:24:16.612Z,5.97
2018-07-16T04:26:44.572Z,5.00
2018-07-16T04:29:12.419Z,5.40
2018-07-16T04:31:40.904Z,5.47
2018-07-16T04:34:08.677Z,5.90
2018-07-16T04:36:36.774Z,5.87
2018-07-16T04:39:05.861Z,6.50
2018-07-16T04:41:34.847Z,5.90
2018-07-16T04:44:02.657Z,5.77
2018-07-16T04:46:31.177Z,6.27
2018-07-16T04:48:59.358Z,6.20
2018-07-16T04:51:27.298Z,5.23
2018-07-16T04:53:56.263Z,5.37
2018-07-16T04:56:24.024Z,5.63
2018-07-16T04:58:51.833Z,5.77
2018-07-16T05:01:19.677Z,5.60
2018-07-16T05:03:48.061Z,5.43
2018-07-16T05:06:15.863Z,5.53
2018-07-16T05:08:43.705Z,5.50
2018-07-16T05:11:12.179Z,5.03
2018-07-16T05:13:40.342Z,5.40
2018-07-16T05:16:08.291Z,5.20
2018-07-16T05:18:36.456Z,5.20
2018-07-16T05:21:04.217Z,6.03
2018-07-16T05:23:31.993Z,5.30
2018-07-16T05:25:59.807Z,4.97
2018-07-16T05:28:27.591Z,5.47
2018-07-16T05:30:55.427Z,4.60
2018-07-16T05:33:23.176Z,6.77
2018-07-16T05:35:51.157Z,4.60
2018-07-16T05:38:18.980Z,5.00
2018-07-16T05:40:47.149Z,5.17
2018-07-16T05:43:14.987Z,5.07
2018-07-16T05:45:42.987Z,6.27
2018-07-16T05:48:10.817Z,7.57
2018-07-16T05:50:39.879Z,5.80
2018-07-16T05:53:07.896Z,5.57
2018-07-16T05:55:35.885Z,5.70
2018-07-16T05:58:04.002Z,5.70
2018-07-16T06:00:31.990Z,5.40
2018-07-16T06:03:00.488Z,5.20
2018-07-16T06:05:28.578Z,5.83
2018-07-16T06:07:56.936Z,5.90
2018-07-16T06:10:25.010Z,5.07
2018-07-16T06:12:53.020Z,4.20
2018-07-16T06:15:21.054Z,5.17
2018-07-16T06:17:49.738Z,4.40
2018-07-16T06:20:18.524Z,5.47
2018-07-16T06:22:46.986Z,6.00
2018-07-16T06:25:14.708Z,9.90
2018-07-16T06:27:45.063Z,4.17
2018-07-16T06:30:13.988Z,4.07
2018-07-16T06:32:41.789Z,8.77
2018-07-16T06:35:10.020Z,7.30
2018-07-16T06:37:40.680Z,4.03
2018-07-16T06:40:10.430Z,3.87
2018-07-16T06:42:38.701Z,5.03
2018-07-16T06:45:08.518Z,4.17
2018-07-16T06:47:36.559Z,4.30
2018-07-16T06:50:05.290Z,3.87
2018-07-16T06:52:33.378Z,3.70
2018-07-16T06:55:03.295Z,5.43
2018-07-16T06:57:32.558Z,3.60
2018-07-16T07:00:00.493Z,3.73
2018-07-16T07:02:31.065Z,3.73
2018-07-16T07:05:00.978Z,4.37
2018-07-16T07:07:29.399Z,4.00
2018-07-16T07:09:58.585Z,3.80
2018-07-16T07:12:27.818Z,3.97
2018-07-16T07:14:56.878Z,3.17
2018-07-16T07:17:25.964Z,6.20
2018-07-16T07:19:54.586Z,8.40
2018-07-16T07:22:24.451Z,3.80
2018-07-16T07:24:52.272Z,3.67
2018-07-16T07:27:20.332Z,3.53
2018-07-16T07:29:48.247Z,3.73
2018-07-16T07:32:19.140Z,5.20
2018-07-16T07:34:48.099Z,6.23
2018-07-16T07:37:18.788Z,4.70
2018-07-16T07:39:46.793Z,4.37
2018-07-16T07:42:15.065Z,4.33
2018-07-16T07:44:42.887Z,3.40
2018-07-16T07:47:12.341Z,4.20
2018-07-16T07:49:43.408Z,4.23
2018-07-16T07:52:12.216Z,4.90
2018-07-16T07:54:40.539Z,4.10
2018-07-16T07:57:09.214Z,3.80
2018-07-16T07:59:39.121Z,3.90
2018-07-16T08:02:07.679Z,4.30
2018-07-16T08:04:36.034Z,3.97
2018-07-16T08:07:09.868Z,4.47
2018-07-16T08:09:39.928Z,3.90
2018-07-16T08:12:10.638Z,3.57
2018-07-16T08:14:38.736Z,6.23
2018-07-16T08:17:08.469Z,8.03
2018-07-16T08:19:36.426Z,4.07
2018-07-16T08:22:05.685Z,5.07
2018-07-16T08:24:34.012Z,3.90
2018-07-16T08:27:02.062Z,6.23
2018-07-16T08:29:30.116Z,13.23
2018-07-16T08:31:57.927Z,7.63
2018-07-16T08:34:25.929Z,4.37
2018-07-16T08:36:54.562Z,4.90
2018-07-16T08:39:22.987Z,5.00
2018-07-16T08:41:53.081Z,4.30
2018-07-16T08:44:20.952Z,5.33
2018-07-16T08:46:48.871Z,5.07
2018-07-16T08:49:17.475Z,4.90
2018-07-16T08:51:49.892Z,5.57
2018-07-16T08:54:18.779Z,5.07
2018-07-16T08:56:48.965Z,5.00
2018-07-16T08:59:17.056Z,4.90
2018-07-16T09:01:47.469Z,8.47
2018-07-16T09:04:16.479Z,7.33
2018-07-16T09:06:46.993Z,5.30
2018-07-16T09:09:15.873Z,5.43
2018-07-16T09:11:44.262Z,9.63
2018-07-16T09:14:12.524Z,6.17
2018-07-16T09:16:40.310Z,5.53
2018-07-16T09:19:09.078Z,5.40
2018-07-16T09:21:39.362Z,5.50
2018-07-16T09:24:07.160Z,5.57
2018-07-16T09:26:36.904Z,15.23
2018-07-16T09:29:06.132Z,5.73
2018-07-16T09:31:34.407Z,5.97
2018-07-16T09:34:02.971Z,6.07
2018-07-16T09:36:31.334Z,6.80
2018-07-16T09:39:01.445Z,6.57
2018-07-16T09:41:29.367Z,6.47
2018-07-16T09:43:57.372Z,5.90
2018-07-16T09:46:25.276Z,11.93
2018-07-16T09:48:54.020Z,7.00
2018-07-16T09:51:21.953Z,6.37
2018-07-16T09:53:50.686Z,5.47
2018-07-16T09:56:19.998Z,6.40
2018-07-16T09:58:49.035Z,7.60
2018-07-16T10:01:22.745Z,6.03
2018-07-16T10:03:52.351Z,5.17
2018-07-16T10:06:20.391Z,7.30
2018-07-16T10:08:48.606Z,5.93
2018-07-16T10:11:17.849Z,7.90
2018-07-16T10:13:46.966Z,7.37
2018-07-16T10:16:15.831Z,6.57
2018-07-16T10:18:44.649Z,6.30
2018-07-16T10:21:12.462Z,6.03
2018-07-16T10:23:42.697Z,7.73
2018-07-16T10:26:10.648Z,6.43
2018-07-16T10:28:38.545Z,5.90
2018-07-16T10:31:06.427Z,6.10
2018-07-16T10:33:34.993Z,5.33
2018-07-16T10:36:04.141Z,8.87
2018-07-16T10:38:32.134Z,5.60
2018-07-16T10:41:00.223Z,8.50
2018-07-16T10:43:28.565Z,6.40
2018-07-16T10:45:56.532Z,6.53
2018-07-16T10:48:25.873Z,6.43
2018-07-16T10:50:54.224Z,6.40
2018-07-16T10:53:22.118Z,6.40
2018-07-16T10:55:50.156Z,6.87
2018-07-16T10:58:18.286Z,6.70
2018-07-16T11:00:47.503Z,6.50
2018-07-16T11:03:15.515Z,5.93
2018-07-16T11:05:43.924Z,9.90
2018-07-16T11:08:11.799Z,6.20
2018-07-16T11:10:40.119Z,6.40
2018-07-16T11:13:08.062Z,5.90
2018-07-16T11:15:36.846Z,5.80
2018-07-16T11:18:09.299Z,6.33
2018-07-16T11:20:42.004Z,6.57
2018-07-16T11:23:10.141Z,6.70
2018-07-16T11:25:39.738Z,6.10
2018-07-16T11:28:09.182Z,5.33
2018-07-16T11:30:37.246Z,6.07
2018-07-16T11:33:04.994Z,12.40
2018-07-16T11:35:33.166Z,5.10
2018-07-16T11:38:01.577Z,22.70
2018-07-16T11:40:30.354Z,4.67
2018-07-16T11:42:58.800Z,5.37
2018-07-16T11:45:27.242Z,5.30
2018-07-16T11:47:55.597Z,5.13
2018-07-16T11:50:23.446Z,5.50
2018-07-16T11:52:51.432Z,5.53
2018-07-16T11:55:19.339Z,5.43
2018-07-16T11:57:47.185Z,5.43
2018-07-16T12:00:15.185Z,4.97
2018-07-16T12:02:43.541Z,5.60
2018-07-16T12:05:11.457Z,5.33
2018-07-16T12:07:44.093Z,5.87
2018-07-16T12:10:12.551Z,6.83
2018-07-16T12:12:41.955Z,6.80
2018-07-16T12:15:11.122Z,13.00
2018-07-16T12:17:39.097Z,7.97
2018-07-16T12:20:08.170Z,5.27
2018-07-16T12:22:36.114Z,6.17
2018-07-16T12:25:05.084Z,5.30
2018-07-16T12:27:34.596Z,5.17
2018-07-16T12:30:03.407Z,5.20
2018-07-16T12:32:31.655Z,5.50
2018-07-16T12:35:00.618Z,5.23
2018-07-16T12:37:29.384Z,4.90
2018-07-16T12:39:57.292Z,4.77
2018-07-16T12:42:25.579Z,4.40
2018-07-16T12:44:54.078Z,4.70
2018-07-16T12:47:21.996Z,9.00
2018-07-16T13:03:26.167Z,4.93
2018-07-16T13:05:54.531Z,4.67
2018-07-16T13:08:23.340Z,5.60
2018-07-16T13:10:52.633Z,4.80
2018-07-16T13:13:24.834Z,3.90
2018-07-16T13:15:54.605Z,5.13
2018-07-16T13:18:24.171Z,3.73
2018-07-16T13:20:53.491Z,4.50
2018-07-16T13:23:21.869Z,4.60
2018-07-16T13:25:51.297Z,4.87
2018-07-16T13:28:19.880Z,3.90
2018-07-16T13:30:50.386Z,6.63
2018-07-16T13:33:18.616Z,6.10
2018-07-16T13:35:49.226Z,8.73
2018-07-16T13:38:19.105Z,4.20
2018-07-16T13:40:48.716Z,4.60
2018-07-16T13:43:18.028Z,3.90
2018-07-16T13:45:46.346Z,4.43
2018-07-16T13:48:14.898Z,4.23
2018-07-16T13:50:45.302Z,4.83
2018-07-16T13:53:14.808Z,4.63
2018-07-16T13:55:44.584Z,14.67
2018-07-16T13:58:13.059Z,4.40
2018-07-16T14:00:43.794Z,6.63
2018-07-16T14:03:12.534Z,4.60
2018-07-16T14:05:41.666Z,3.63
2018-07-16T14:08:10.316Z,4.23
2018-07-16T14:10:39.244Z,3.87
2018-07-16T14:13:08.569Z,5.20
2018-07-16T14:15:36.999Z,4.20
2018-07-16T14:18:06.882Z,4.37
2018-07-16T14:20:36.472Z,3.43
2018-07-16T14:23:07.890Z,5.60
2018-07-16T14:25:38.782Z,4.20
2018-07-16T14:28:12.440Z,4.20
2018-07-16T14:30:44.373Z,3.97
2018-07-16T14:33:12.827Z,3.73
2018-07-16T14:35:40.737Z,3.90
2018-07-16T14:38:09.308Z,4.00
2018-07-16T14:40:43.309Z,5.50
2018-07-16T14:43:12.230Z,3.70
2018-07-16T14:45:43.771Z,3.93
2018-07-16T14:48:14.994Z,9.20
2018-07-16T14:50:44.027Z,4.50
2018-07-16T14:53:13.629Z,3.50
2018-07-16T14:55:42.303Z,5.87
2018-07-16T14:58:11.690Z,5.07
2018-07-16T15:00:42.670Z,4.17
2018-07-16T15:03:12.010Z,4.20
2018-07-16T15:05:44.311Z,7.33
2018-07-16T15:08:14.136Z,4.23
2018-07-16T15:10:43.358Z,3.90
2018-07-16T15:13:14.493Z,4.43
2018-07-16T15:15:43.869Z,4.13
2018-07-16T15:18:12.280Z,3.57
2018-07-16T15:20:41.562Z,3.77
2018-07-16T15:23:10.014Z,3.90
2018-07-16T15:25:38.526Z,4.40
2018-07-16T15:28:06.803Z,3.67
2018-07-16T15:30:37.000Z,4.03
2018-07-16T15:33:08.087Z,3.80
2018-07-16T15:35:37.113Z,4.27
2018-07-16T15:38:07.309Z,4.30
2018-07-16T15:40:36.588Z,5.23
2018-07-16T15:43:10.232Z,4.20
2018-07-16T15:45:40.776Z,4.60
2018-07-16T15:48:11.150Z,3.83
2018-07-16T15:50:39.802Z,4.00
2018-07-16T15:53:09.863Z,4.20
2018-07-16T15:55:39.559Z,3.87
2018-07-16T15:58:08.189Z,5.10
2018-07-16T16:00:37.561Z,6.00
2018-07-16T16:03:06.517Z,4.43
2018-07-16T16:05:36.575Z,4.50
2018-07-16T16:08:05.485Z,4.87
2018-07-16T16:10:34.150Z,4.20
2018-07-16T16:13:02.832Z,4.10
2018-07-16T16:15:34.926Z,4.23
2018-07-16T16:18:05.273Z,5.37
2018-07-16T16:20:34.456Z,4.03
2018-07-16T16:23:05.438Z,5.93
2018-07-16T16:25:34.998Z,4.63
2018-07-16T16:28:04.431Z,4.10
2018-07-16T16:30:35.779Z,4.60
2018-07-16T16:33:08.150Z,4.77
2018-07-16T16:35:37.583Z,4.23
2018-07-16T16:38:06.013Z,4.40
2018-07-16T16:40:34.910Z,4.13
2018-07-16T16:43:03.625Z,4.20
2018-07-16T16:45:32.306Z,6.00
2018-07-16T16:48:01.663Z,6.47
2018-07-16T16:50:32.543Z,6.13
2018-07-16T16:53:03.292Z,5.63
2018-07-16T16:55:34.041Z,5.20
2018-07-16T16:58:03.369Z,5.13
2018-07-16T17:00:33.196Z,4.70
2018-07-16T17:03:02.039Z,5.47
2018-07-16T17:05:39.509Z,5.20
2018-07-16T17:08:10.401Z,5.60
2018-07-16T17:10:39.998Z,4.70
2018-07-16T17:13:10.671Z,4.90
2018-07-16T17:15:41.394Z,5.20
2018-07-16T17:18:10.211Z,5.47
2018-07-16T17:20:40.293Z,5.97
2018-07-16T17:23:10.261Z,8.00
2018-07-16T17:25:39.472Z,7.13
2018-07-16T17:28:08.134Z,6.90
2018-07-16T17:30:37.743Z,6.67
2018-07-16T17:33:08.251Z,6.70
2018-07-16T17:35:37.610Z,10.33
2018-07-16T17:38:08.403Z,6.60
2018-07-16T17:40:43.684Z,5.57
2018-07-16T17:43:13.089Z,4.80
2018-07-16T17:45:41.769Z,5.37
2018-07-16T17:48:15.168Z,5.93
2018-07-16T17:50:44.231Z,4.90
2018-07-16T17:53:14.153Z,5.10
2018-07-16T17:55:45.963Z,5.90
2018-07-16T17:58:14.064Z,6.73
2018-07-16T18:00:42.789Z,9.23
2018-07-16T18:03:11.351Z,7.10
2018-07-16T18:05:42.899Z,7.30
2018-07-16T18:08:20.578Z,8.17
2018-07-16T18:10:53.621Z,6.80
2018-07-16T18:16:04.694Z,5.60
2018-07-16T18:18:37.896Z,4.90
2018-07-16T18:21:10.463Z,4.60
2018-07-16T18:23:40.883Z,5.50
2018-07-16T18:26:16.740Z,5.77
2018-07-16T18:28:46.295Z,5.40
2018-07-16T18:31:20.383Z,5.17
2018-07-16T18:33:50.206Z,4.70
2018-07-16T18:36:20.009Z,4.87
2018-07-16T18:38:50.103Z,5.20
2018-07-16T18:41:18.441Z,5.50
2018-07-16T18:43:50.903Z,10.33
2018-07-16T18:46:21.211Z,20.97
2018-07-16T18:48:53.809Z,65.47
2018-07-16T18:51:24.523Z,152.50
2018-07-16T18:53:54.196Z,101.90
2018-07-16T18:56:28.031Z,90.60
2018-07-16T18:59:00.646Z,25.37
2018-07-16T19:01:30.093Z,77.97
2018-07-16T19:03:59.199Z,30.17
2018-07-16T19:06:28.419Z,18.93
2018-07-16T19:08:59.488Z,6.63
2018-07-16T19:11:28.841Z,6.93
2018-07-16T19:14:02.350Z,6.00
2018-07-16T19:16:38.308Z,5.83
2018-07-16T19:19:13.419Z,6.13
2018-07-16T19:21:42.595Z,6.57
2018-07-16T19:24:13.127Z,5.90
2018-07-16T19:26:46.077Z,12.70
2018-07-16T19:29:17.264Z,29.53
2018-07-16T19:31:48.416Z,31.10
2018-07-16T19:34:18.177Z,26.30
2018-07-16T19:36:48.469Z,17.80
2018-07-16T19:39:18.707Z,10.80
2018-07-16T19:41:49.304Z,41.07
2018-07-16T19:44:36.694Z,57.43
2018-07-16T19:47:08.889Z,33.43
2018-07-16T19:49:38.912Z,34.90
2018-07-16T19:52:11.647Z,44.37
2018-07-16T19:54:42.031Z,28.87
2018-07-16T19:57:15.536Z,35.50
2018-07-16T19:59:45.083Z,34.90
2018-07-16T20:02:19.712Z,56.07
2018-07-16T20:04:50.016Z,52.30
2018-07-16T20:07:19.949Z,51.50
2018-07-16T20:09:48.972Z,46.37
2018-07-16T20:12:26.133Z,46.60
2018-07-16T20:14:57.467Z,34.07
2018-07-16T20:17:28.254Z,19.43
2018-07-16T20:19:57.777Z,14.23
2018-07-16T20:22:27.202Z,17.00
2018-07-16T20:24:56.398Z,11.67
2018-07-16T20:27:27.948Z,20.57
2018-07-16T20:30:09.810Z,29.73
2018-07-16T20:32:41.860Z,22.90
2018-07-16T20:35:14.017Z,23.70
2018-07-16T20:37:45.972Z,21.80
2018-07-16T20:40:16.120Z,16.00
2018-07-16T20:42:46.183Z,18.20
2018-07-16T20:45:17.723Z,15.67
2018-07-16T20:47:48.407Z,12.67
2018-07-16T20:50:19.487Z,12.23
2018-07-16T20:52:54.380Z,13.80
2018-07-16T20:55:24.597Z,15.93
2018-07-16T20:57:54.721Z,16.70
2018-07-16T21:00:23.716Z,11.80
2018-07-16T21:02:52.749Z,13.20
2018-07-16T21:05:24.648Z,12.13
2018-07-16T21:07:54.701Z,13.33
2018-07-16T21:10:25.103Z,11.53
2018-07-16T21:12:55.050Z,11.97
2018-07-16T21:15:27.228Z,9.17
2018-07-16T21:17:58.514Z,9.60
2018-07-16T21:20:29.343Z,8.67
2018-07-16T21:22:57.863Z,8.73
2018-07-16T21:25:27.765Z,8.63
2018-07-16T21:27:57.173Z,8.03
2018-07-16T21:30:25.516Z,8.37
2018-07-16T21:32:55.987Z,8.23
2018-07-16T21:35:26.275Z,7.60
2018-07-16T21:37:54.758Z,7.77
2018-07-16T21:40:24.024Z,9.23
2018-07-16T21:42:53.952Z,8.07
2018-07-16T21:45:23.110Z,7.20
2018-07-16T21:47:54.037Z,7.53
2018-07-16T21:50:22.547Z,7.40
2018-07-16T21:52:51.483Z,8.33
2018-07-16T21:55:19.569Z,7.87
2018-07-16T21:57:47.594Z,7.60
2018-07-16T22:00:27.523Z,8.80
2018-07-16T22:02:57.392Z,7.90
2018-07-16T22:05:27.040Z,7.63
2018-07-16T22:07:56.472Z,9.10
2018-07-16T22:10:25.583Z,7.80
2018-07-16T22:12:54.296Z,8.10
2018-07-16T22:15:25.664Z,8.77
2018-07-16T22:17:54.560Z,8.77
2018-07-16T22:20:23.588Z,9.07
2018-07-16T22:22:52.183Z,8.00
2018-07-16T22:25:20.110Z,7.83
2018-07-16T22:27:48.363Z,8.80
2018-07-16T22:30:16.267Z,7.87
2018-07-16T22:32:44.128Z,7.77
2018-07-16T22:35:12.310Z,8.27
2018-07-16T22:37:40.614Z,8.47
2018-07-16T22:40:09.036Z,8.13
2018-07-16T22:42:37.211Z,8.17
2018-07-16T22:45:05.978Z,8.27
2018-07-16T22:47:34.236Z,8.37
2018-07-16T22:50:02.786Z,7.90
2018-07-16T22:52:30.958Z,7.90
2018-07-16T22:54:58.858Z,8.40
2018-07-16T22:57:27.476Z,7.60
2018-07-16T22:59:56.016Z,7.57
2018-07-16T23:02:24.164Z,12.93
2018-07-16T23:04:52.928Z,8.23
2018-07-16T23:07:20.862Z,8.27
2018-07-16T23:09:48.783Z,8.97
2018-07-16T23:12:16.842Z,8.30
2018-07-16T23:14:44.972Z,7.70
2018-07-16T23:17:13.008Z,7.47
2018-07-16T23:19:41.008Z,7.53
2018-07-16T23:22:08.953Z,8.13
2018-07-16T23:24:37.765Z,7.87
2018-07-16T23:27:05.887Z,9.00
2018-07-16T23:29:34.067Z,8.10
2018-07-16T23:32:02.102Z,7.20
2018-07-16T23:34:30.409Z,8.23
2018-07-16T23:36:58.285Z,8.23
2018-07-16T23:39:26.329Z,7.20
2018-07-16T23:41:54.601Z,7.87
2018-07-16T23:44:22.716Z,8.73
2018-07-16T23:46:50.512Z,8.33
2018-07-16T23:49:18.435Z,8.00
2018-07-16T23:51:46.316Z,7.90
2018-07-16T23:54:14.488Z,7.47
2018-07-16T23:56:42.422Z,7.17
2018-07-16T23:59:10.413Z,7.27
